Página principal
METAR-TAF:

METAR-TAF

Aeroportos :

Aeroporto Internacional de Djerba-Zarzis

Djerba, Tunísia

latitude: 33-52N, longitude: 010-46E, altura: 3 m

Observação actual do tempo

O boletim foi feito há 40 minutos, às 13:00 UTC
Vento 12 kt de noroeste
Temperatura 17°C
Humidade 39%
Pressão 1027 hPa
Visibilidade 10 km ou mais
Poucas nuvensa uma altura de 3000 ft

METAR: DTTJ 181300Z 32012KT 9999 FEW030 17/03 Q1027 NOSIG

Hora: 14:40 (13:40 UTC)

Previsão

O boletim foi feito há 2 horas e 40 minutos, às 11:00 UTC
Previsão válida de 18 às 12 UTC a 19 às 12 UTC
Vento 15 kt de noroeste
Visibilidade 10 km ou mais
sem nuvens abaixo de 1500 metros e sem cumulonimbus
Tornando-se
de 18 às 18 UTC a 18 às 20 UTC
Vento 3 kt com direcção variável

TAF: DTTJ 181100Z 1812/1912 31015KT CAVOK BECMG 1818/1820 VRB03KT

Observações e previsões do tempo de mais de 4000 aeroportos (mensagens METAR e TAF).

As estações disponíveis são os pontos amarelos e vermelhos sobre o mapa.

Mova o rato sobre o mapa para ver o nome da estação.

Depois clique no ponto para visualizar as observações e previsões meteorológicas.

Para alterar o mapa : clique nos botões verdes com uma cruz preta para aumentar o zoom; no botão verde com uma pitada de zoom; ou nas setas verdes para mapas adjacentes.


METAR-TAF: